Time;durP1;ratioP1;P1;durP2;ratioP2;P2;SDS_P1;SDS_P2;PMS_P1;PMS_P2;Temp;Humidity;BMP_temperature;BMP_pressure;BME280_temperature;BME280_humidity;BME280_pressure;Samples;Min_cycle;Max_cycle;Signal;HPM_P1;HPM_P2
2022/09/24 00:00:52;;;;;;;23.00;12.07;;;14.20;99.90;;;;;;5054641;28;19935;-74
2022/09/24 00:03:19;;;;;;;21.23;12.05;;;14.20;99.90;;;;;;5054740;28;20147;-73
2022/09/24 00:05:45;;;;;;;20.33;11.43;;;14.10;99.90;;;;;;5053204;28;20182;-74
2022/09/24 00:08:13;;;;;;;19.73;10.98;;;14.10;99.90;;;;;;5054792;28;20048;-73
2022/09/24 00:10:40;;;;;;;19.27;10.55;;;14.10;99.90;;;;;;5054613;28;20025;-73
2022/09/24 00:13:07;;;;;;;20.10;11.00;;;14.10;99.90;;;;;;5054360;28;20017;-73
2022/09/24 00:15:37;;;;;;;19.05;10.52;;;14.00;99.90;;;;;;5054447;28;20033;-73
2022/09/24 00:18:04;;;;;;;19.63;10.90;;;14.00;99.90;;;;;;5053063;28;20025;-73
2022/09/24 00:20:31;;;;;;;17.25;10.40;;;14.10;99.90;;;;;;5053410;28;20029;-73
2022/09/24 00:22:58;;;;;;;23.08;12.52;;;14.10;99.90;;;;;;5052848;28;20019;-73
2022/09/24 00:28:13;;;;;;;;;;;14.00;99.90;;;;;;5035336;28;20112;-73
2022/09/24 00:30:40;;;;;;;18.50;9.48;;;14.00;99.90;;;;;;5054019;28;19959;-73
2022/09/24 00:33:05;;;;;;;19.45;9.90;;;14.00;99.90;;;;;;5053866;28;20033;-73
2022/09/24 00:35:32;;;;;;;17.23;9.00;;;14.00;99.90;;;;;;5053960;28;20035;-73
2022/09/24 00:37:58;;;;;;;17.92;8.15;;;14.00;99.90;;;;;;5054088;28;20054;-73
2022/09/24 00:40:28;;;;;;;15.98;9.52;;;14.00;99.90;;;;;;5053889;28;20442;-73
2022/09/24 00:42:53;;;;;;;15.75;9.07;;;13.90;99.90;;;;;;5053924;28;20029;-73
2022/09/24 00:45:19;;;;;;;17.80;8.93;;;13.90;99.90;;;;;;5053752;28;20100;-73
2022/09/24 00:47:45;;;;;;;15.70;9.05;;;13.90;99.90;;;;;;5052371;28;20037;-73
2022/09/24 00:50:24;;;;;;;17.10;9.38;;;13.90;99.90;;;;;;5053719;28;20029;-73
2022/09/24 00:53:22;;;;;;;19.60;10.45;;;13.90;99.90;;;;;;5052446;28;20017;-73
2022/09/24 00:55:53;;;;;;;17.95;9.45;;;13.90;99.90;;;;;;5050721;28;20432;-73
2022/09/24 00:58:21;;;;;;;17.30;9.20;;;13.90;99.90;;;;;;5052318;28;20044;-73
2022/09/24 01:00:48;;;;;;;18.17;9.05;;;13.90;99.90;;;;;;5053491;28;20021;-73
2022/09/24 01:03:19;;;;;;;17.35;9.57;;;13.90;99.90;;;;;;5052753;28;20110;-73
2022/09/24 01:05:45;;;;;;;16.17;9.43;;;13.90;99.90;;;;;;5052436;28;20036;-72
2022/09/24 01:08:16;;;;;;;15.10;8.60;;;13.80;99.90;;;;;;5054123;28;20470;-73
2022/09/24 01:11:20;;;;;;;18.55;9.88;;;13.90;99.90;;;;;;5053844;28;20028;-73
2022/09/24 01:14:04;;;;;;;16.77;8.90;;;13.80;99.90;;;;;;5013018;28;20040;-73
2022/09/24 01:16:45;;;;;;;15.48;8.32;;;13.80;99.90;;;;;;5051983;28;20025;-73
2022/09/24 01:19:26;;;;;;;17.17;9.45;;;13.90;99.90;;;;;;5052171;28;20025;-72
2022/09/24 01:22:00;;;;;;;17.42;8.80;;;13.80;99.90;;;;;;5053316;28;20418;-73
2022/09/24 01:24:34;;;;;;;19.25;9.65;;;13.80;99.90;;;;;;5053687;28;20039;-73
2022/09/24 01:27:16;;;;;;;18.17;9.65;;;13.80;99.90;;;;;;5053263;28;20536;-73
2022/09/24 01:29:53;;;;;;;18.42;10.10;;;13.80;99.90;;;;;;5053495;28;20057;-73
2022/09/24 01:32:34;;;;;;;20.45;10.45;;;13.80;99.90;;;;;;5057235;28;20168;-73
2022/09/24 01:35:12;;;;;;;19.23;9.82;;;13.70;99.90;;;;;;5060079;28;20074;-73
2022/09/24 01:37:42;;;;;;;17.55;9.43;;;13.70;99.90;;;;;;5060013;28;20025;-72
2022/09/24 01:40:10;;;;;;;18.45;10.38;;;13.70;99.90;;;;;;5059795;28;20468;-73
2022/09/24 01:42:37;;;;;;;22.33;11.10;;;13.70;99.90;;;;;;5059759;28;20056;-73
2022/09/24 01:45:03;;;;;;;21.70;10.60;;;13.70;99.90;;;;;;5059703;28;20032;-73
2022/09/24 01:47:39;;;;;;;23.95;12.00;;;13.70;99.90;;;;;;5059760;28;20037;-73
2022/09/24 01:50:11;;;;;;;23.20;12.15;;;13.70;99.90;;;;;;5060373;28;20025;-73
2022/09/24 01:52:47;;;;;;;21.98;12.15;;;13.60;99.90;;;;;;5059739;28;20477;-72
2022/09/24 01:55:16;;;;;;;25.23;11.52;;;13.60;99.90;;;;;;5059607;28;20028;-73
2022/09/24 01:57:49;;;;;;;27.00;13.25;;;13.60;99.90;;;;;;5059869;28;20056;-73
2022/09/24 02:00:18;;;;;;;21.23;11.38;;;13.60;99.90;;;;;;5060133;28;20044;-72
2022/09/24 02:02:50;;;;;;;22.90;11.90;;;13.60;99.90;;;;;;5058357;28;20390;-73
2022/09/24 02:05:31;;;;;;;23.30;11.43;;;13.60;99.90;;;;;;5059537;28;20104;-72
2022/09/24 02:08:22;;;;;;;22.10;11.68;;;13.60;99.90;;;;;;5059627;28;20493;-73
2022/09/24 02:11:06;;;;;;;22.88;11.55;;;13.60;99.90;;;;;;5059696;28;20021;-73
2022/09/24 02:13:40;;;;;;;24.65;12.40;;;13.60;99.90;;;;;;5059555;28;20075;-73
2022/09/24 02:16:13;;;;;;;22.17;11.30;;;13.60;99.90;;;;;;5058897;28;20063;-72
2022/09/24 02:18:44;;;;;;;23.10;12.00;;;13.60;99.90;;;;;;5059746;28;20082;-71
2022/09/24 02:21:13;;;;;;;25.25;11.38;;;13.60;99.90;;;;;;5059678;28;20056;-73
2022/09/24 02:23:41;;;;;;;;;;;13.60;99.90;;;;;;5060047;28;20516;-72
2022/09/24 02:26:09;;;;;;;;;;;13.50;99.90;;;;;;5058550;28;20006;-72
2022/09/24 02:28:35;;;;;;;21.08;10.73;;;13.50;99.90;;;;;;5059530;28;19904;-73
2022/09/24 02:31:39;;;;;;;22.83;10.80;;;13.60;99.90;;;;;;5057953;28;20508;-73
2022/09/24 02:34:21;;;;;;;22.48;11.50;;;13.60;99.90;;;;;;5053854;28;20099;-72
2022/09/24 02:36:58;;;;;;;24.00;11.13;;;13.50;99.90;;;;;;5058067;28;20028;-72
2022/09/24 02:39:23;;;;;;;21.70;11.25;;;13.50;99.90;;;;;;5058119;28;20036;-73
2022/09/24 02:41:51;;;;;;;23.10;11.48;;;13.50;99.90;;;;;;5058862;28;20029;-73
2022/09/24 02:44:18;;;;;;;22.13;11.32;;;13.50;99.90;;;;;;5056129;28;20032;-73
2022/09/24 02:46:44;;;;;;;21.23;11.95;;;13.40;99.90;;;;;;5055986;28;20021;-72
2022/09/24 02:49:11;;;;;;;20.08;10.80;;;13.40;99.90;;;;;;5056002;28;20519;-72
2022/09/24 02:51:37;;;;;;;17.55;10.00;;;13.40;99.90;;;;;;5054675;28;20025;-73
2022/09/24 02:54:03;;;;;;;19.73;10.73;;;13.40;99.90;;;;;;5055841;28;20025;-73
2022/09/24 02:56:29;;;;;;;21.13;11.23;;;13.40;99.90;;;;;;5056142;28;20025;-73
2022/09/24 02:58:54;;;;;;;19.67;11.00;;;13.40;99.90;;;;;;5056106;28;20025;-73
2022/09/24 03:01:21;;;;;;;21.17;10.52;;;13.40;99.90;;;;;;5055774;28;20021;-72
2022/09/24 03:03:47;;;;;;;19.25;10.88;;;13.40;99.90;;;;;;5055753;28;20032;-73
2022/09/24 03:06:13;;;;;;;23.35;11.20;;;13.40;99.90;;;;;;5055695;28;20448;-73
2022/09/24 03:08:41;;;;;;;21.33;11.63;;;13.40;99.90;;;;;;5055635;28;20381;-72
2022/09/24 03:11:07;;;;;;;22.03;12.13;;;13.40;99.90;;;;;;5055536;28;20018;-73
2022/09/24 03:13:32;;;;;;;22.75;11.18;;;13.40;99.90;;;;;;5055482;28;20021;-72
2022/09/24 03:15:58;;;;;;;21.60;11.07;;;13.30;99.90;;;;;;5054106;28;20087;-72
2022/09/24 03:18:24;;;;;;;23.10;11.93;;;13.30;99.90;;;;;;5055537;28;20355;-73
2022/09/24 03:20:57;;;;;;;22.15;12.02;;;13.40;99.90;;;;;;5055627;28;20036;-72
2022/09/24 03:23:24;;;;;;;24.17;12.73;;;13.30;99.90;;;;;;5055279;28;20394;-72
2022/09/24 03:25:49;;;;;;;34.85;13.57;;;13.30;99.90;;;;;;5055446;28;20029;-72
2022/09/24 03:28:16;;;;;;;25.52;11.80;;;13.40;99.90;;;;;;5055392;28;20497;-72
2022/09/24 03:31:00;;;;;;;28.60;12.70;;;13.40;99.90;;;;;;5055179;28;20025;-72
2022/09/24 03:33:36;;;;;;;23.05;12.02;;;13.30;99.90;;;;;;5054730;28;20402;-74
2022/09/24 03:36:18;;;;;;;30.13;13.90;;;13.30;99.90;;;;;;5055581;28;20017;-73
2022/09/24 03:38:45;;;;;;;26.70;13.95;;;13.30;99.90;;;;;;5055385;28;20096;-72
2022/09/24 03:41:11;;;;;;;27.60;13.32;;;13.30;99.90;;;;;;5054967;28;20108;-74
2022/09/24 03:43:37;;;;;;;26.20;13.45;;;13.30;99.90;;;;;;5054946;28;20426;-73
2022/09/24 03:46:05;;;;;;;28.35;12.85;;;13.30;99.90;;;;;;5054863;28;20442;-72
2022/09/24 03:48:33;;;;;;;28.85;14.48;;;13.30;99.90;;;;;;5053564;28;20013;-73
2022/09/24 03:51:08;;;;;;;27.63;12.83;;;13.30;99.90;;;;;;5053560;28;20060;-73
2022/09/24 03:53:33;;;;;;;31.77;15.02;;;13.30;99.90;;;;;;5054696;28;20598;-73
2022/09/24 03:56:01;;;;;;;31.83;15.52;;;13.30;99.90;;;;;;5053713;28;20070;-71
2022/09/24 03:58:28;;;;;;;29.40;14.60;;;13.30;99.90;;;;;;5054717;28;20147;-72
2022/09/24 04:00:54;;;;;;;30.00;14.00;;;13.30;99.90;;;;;;5054583;28;20021;-72
2022/09/24 04:03:24;;;;;;;29.20;13.90;;;13.30;99.90;;;;;;5053300;28;20512;-73
2022/09/24 04:05:52;;;;;;;28.30;13.98;;;13.30;99.90;;;;;;5054377;28;20017;-73
2022/09/24 04:08:22;;;;;;;30.10;15.07;;;13.20;99.90;;;;;;5053227;28;20040;-73
2022/09/24 04:10:49;;;;;;;29.63;14.93;;;13.30;99.90;;;;;;5054377;28;20025;-72
2022/09/24 04:13:16;;;;;;;27.75;13.30;;;13.30;99.90;;;;;;5053073;28;20390;-73
2022/09/24 04:15:42;;;;;;;32.65;15.73;;;13.30;99.90;;;;;;5054356;28;20025;-72
2022/09/24 04:18:08;;;;;;;28.95;14.68;;;13.30;99.90;;;;;;5054192;28;20032;-72
2022/09/24 04:20:34;;;;;;;34.40;15.77;;;13.30;99.90;;;;;;5054245;28;20505;-73
2022/09/24 04:23:00;;;;;;;30.40;13.50;;;13.20;99.90;;;;;;5052965;28;20025;-73
2022/09/24 04:25:29;;;;;;;31.80;14.38;;;13.30;99.90;;;;;;5054442;28;20032;-73
2022/09/24 04:27:57;;;;;;;27.50;14.50;;;13.30;99.90;;;;;;5054100;28;20031;-73
2022/09/24 04:30:24;;;;;;;29.10;13.77;;;13.20;99.90;;;;;;5052767;28;20063;-72
2022/09/24 04:32:50;;;;;;;27.75;13.52;;;13.20;99.90;;;;;;5054413;28;20028;-72
2022/09/24 04:35:20;;;;;;;25.02;13.35;;;13.20;99.90;;;;;;5054616;28;20021;-72
2022/09/24 04:37:47;;;;;;;26.70;13.48;;;13.20;99.90;;;;;;5054735;28;20466;-73
2022/09/24 04:40:13;;;;;;;28.40;14.30;;;13.20;99.90;;;;;;5054154;28;20051;-72
2022/09/24 04:42:40;;;;;;;33.13;14.55;;;13.20;99.90;;;;;;5054300;28;20021;-72
2022/09/24 04:45:06;;;;;;;27.90;13.20;;;13.10;99.90;;;;;;5053823;28;20028;-72
2022/09/24 04:47:36;;;;;;;29.83;13.38;;;13.10;99.90;;;;;;5053613;28;20032;-72
2022/09/24 04:50:02;;;;;;;30.80;15.00;;;13.10;99.90;;;;;;5053674;28;20078;-72
2022/09/24 04:52:31;;;;;;;27.65;12.88;;;13.20;99.90;;;;;;5053905;28;20031;-72
2022/09/24 04:54:58;;;;;;;28.20;13.93;;;13.20;99.90;;;;;;5052242;28;20028;-72
2022/09/24 04:57:25;;;;;;;27.50;13.73;;;13.20;99.90;;;;;;5053569;28;20055;-72
2022/09/24 04:59:51;;;;;;;28.27;13.43;;;13.20;99.90;;;;;;5053636;28;20021;-72
2022/09/24 05:02:17;;;;;;;25.17;12.65;;;13.20;99.90;;;;;;5053714;28;20047;-72
2022/09/24 05:04:43;;;;;;;27.65;13.77;;;13.20;99.90;;;;;;5053576;28;20429;-72
2022/09/24 05:07:10;;;;;;;27.00;13.60;;;13.20;99.90;;;;;;5053817;28;20060;-72
2022/09/24 05:09:35;;;;;;;25.55;12.52;;;13.20;99.90;;;;;;5053405;28;20506;-72
2022/09/24 05:12:02;;;;;;;26.35;13.43;;;13.20;99.90;;;;;;5052141;28;20060;-73
2022/09/24 05:14:27;;;;;;;27.17;13.07;;;13.20;99.90;;;;;;5052038;28;20067;-71
2022/09/24 05:19:21;;;;;;;28.50;12.80;;;13.20;99.90;;;;;;5011970;28;20054;-74
2022/09/24 05:21:47;;;;;;;26.60;12.82;;;13.20;99.90;;;;;;5013862;28;20514;-74
2022/09/24 05:24:13;;;;;;;26.90;13.05;;;13.20;99.90;;;;;;5013644;28;20505;-74
2022/09/24 05:29:23;;;;;;;26.63;13.05;;;13.10;99.90;;;;;;5013835;28;20072;-74
2022/09/24 05:31:48;;;;;;;27.50;13.95;;;13.20;99.90;;;;;;5013593;28;20058;-73
2022/09/24 05:34:14;;;;;;;26.25;12.60;;;13.20;99.90;;;;;;5014026;28;20014;-74
2022/09/24 05:36:42;;;;;;;24.15;12.18;;;13.20;99.90;;;;;;5013399;28;20030;-73
2022/09/24 05:39:08;;;;;;;26.25;12.07;;;13.20;99.90;;;;;;5013511;28;20048;-74
2022/09/24 05:41:34;;;;;;;28.25;12.75;;;13.20;99.90;;;;;;5012535;28;20026;-74
2022/09/24 05:44:00;;;;;;;26.33;13.00;;;13.10;99.90;;;;;;5013405;28;20041;-74
2022/09/24 05:46:26;;;;;;;29.83;13.75;;;13.20;99.90;;;;;;5012068;28;20034;-74
2022/09/24 05:48:51;;;;;;;28.25;13.05;;;13.10;99.90;;;;;;5013648;28;20017;-75
2022/09/24 05:51:17;;;;;;;27.35;13.27;;;13.20;99.90;;;;;;5012042;28;20507;-74
2022/09/24 05:53:43;;;;;;;26.65;13.57;;;13.20;99.90;;;;;;5013672;28;20425;-74
2022/09/24 05:56:09;;;;;;;27.50;12.98;;;13.20;99.90;;;;;;5013245;28;20105;-73
2022/09/24 05:58:35;;;;;;;28.35;13.55;;;13.20;99.90;;;;;;5013325;28;20030;-74
2022/09/24 06:01:01;;;;;;;28.60;13.68;;;13.20;99.90;;;;;;5011964;28;20072;-75
2022/09/24 06:03:28;;;;;;;27.20;13.20;;;13.20;99.90;;;;;;5013184;28;20036;-74
2022/09/24 06:05:55;;;;;;;27.85;13.70;;;13.20;99.90;;;;;;5011887;28;20046;-74
2022/09/24 06:08:21;;;;;;;27.95;13.50;;;13.20;99.90;;;;;;5013219;28;20096;-75
2022/09/24 06:10:47;;;;;;;27.13;13.38;;;13.20;99.90;;;;;;5013092;28;20072;-73
2022/09/24 06:13:16;;;;;;;25.23;13.05;;;13.20;99.90;;;;;;5013424;28;20022;-74
2022/09/24 06:15:43;;;;;;;29.30;13.90;;;13.30;99.90;;;;;;5011893;28;20022;-75
2022/09/24 06:18:14;;;;;;;26.85;12.98;;;13.30;99.90;;;;;;5012012;28;20368;-74
2022/09/24 06:20:49;;;;;;;24.45;11.57;;;13.30;99.90;;;;;;5015844;28;20026;-74
2022/09/24 06:23:15;;;;;;;24.90;12.73;;;13.40;99.90;;;;;;5015683;28;20030;-74
2022/09/24 06:25:41;;;;;;;25.60;11.95;;;13.40;99.90;;;;;;5016738;28;20030;-73
2022/09/24 06:28:07;;;;;;;25.42;13.00;;;13.40;99.90;;;;;;5016618;28;20025;-74
2022/09/24 06:30:37;;;;;;;26.02;12.93;;;13.40;99.90;;;;;;5016830;28;20099;-74
2022/09/24 06:33:08;;;;;;;27.17;13.77;;;13.40;99.90;;;;;;5015290;28;20026;-73
2022/09/24 06:35:34;;;;;;;23.27;13.07;;;13.40;99.90;;;;;;5016864;28;20033;-74
2022/09/24 06:38:01;;;;;;;23.75;12.57;;;13.40;99.90;;;;;;5016728;28;20014;-73
2022/09/24 06:40:27;;;;;;;25.90;13.25;;;13.50;99.90;;;;;;5016498;28;20026;-74
2022/09/24 06:42:53;;;;;;;25.30;12.75;;;13.40;99.90;;;;;;5016481;28;20116;-74
2022/09/24 06:45:22;;;;;;;25.42;12.27;;;13.50;99.90;;;;;;5016358;28;20025;-74
2022/09/24 06:47:52;;;;;;;22.80;12.52;;;13.50;99.90;;;;;;5015050;28;20395;-74
2022/09/24 06:50:18;;;;;;;22.33;12.30;;;13.50;99.90;;;;;;5016293;28;20101;-74
2022/09/24 06:52:43;;;;;;;22.83;12.63;;;13.60;99.90;;;;;;5015091;28;20084;-74
2022/09/24 06:55:09;;;;;;;22.73;12.50;;;13.60;99.90;;;;;;5016323;28;20101;-74
2022/09/24 06:57:34;;;;;;;22.77;12.27;;;13.60;99.90;;;;;;5016158;28;20026;-73
2022/09/24 07:00:00;;;;;;;26.42;11.98;;;13.60;99.90;;;;;;5016674;28;20030;-73
2022/09/24 07:02:26;;;;;;;24.73;13.18;;;13.70;99.90;;;;;;5016182;28;20034;-73
2022/09/24 07:04:51;;;;;;;23.80;12.60;;;13.70;99.90;;;;;;5016254;28;20501;-74
2022/09/24 07:07:29;;;;;;;23.02;11.98;;;13.60;99.90;;;;;;5015975;28;20026;-74
2022/09/24 07:09:56;;;;;;;21.93;12.53;;;13.70;99.90;;;;;;5015922;28;20452;-74
2022/09/24 07:12:22;;;;;;;23.83;12.10;;;13.70;99.90;;;;;;5016131;28;20014;-75
2022/09/24 07:14:48;;;;;;;21.55;12.18;;;13.70;99.90;;;;;;5016397;28;20374;-75
2022/09/24 07:17:14;;;;;;;21.45;11.55;;;13.60;99.90;;;;;;5015365;28;20022;-75
2022/09/24 07:19:39;;;;;;;20.52;11.50;;;13.60;99.90;;;;;;5015643;28;20026;-75
2022/09/24 07:22:05;;;;;;;20.65;10.93;;;13.60;99.90;;;;;;5016265;28;20064;-75
2022/09/24 07:24:31;;;;;;;23.55;12.07;;;13.60;99.90;;;;;;5016005;28;20506;-75
2022/09/24 07:26:56;;;;;;;24.20;11.60;;;13.70;99.90;;;;;;5013390;28;20107;-75
2022/09/24 07:29:22;;;;;;;20.83;11.48;;;13.70;99.90;;;;;;5014905;28;20033;-75
2022/09/24 07:31:48;;;;;;;32.97;12.18;;;13.70;99.90;;;;;;5014453;28;20097;-74
2022/09/24 07:34:13;;;;;;;21.10;10.68;;;13.70;99.90;;;;;;5014078;28;20018;-74
2022/09/24 07:36:42;;;;;;;22.77;11.13;;;13.70;99.90;;;;;;5014424;28;20097;-74
2022/09/24 07:39:08;;;;;;;26.30;11.40;;;13.70;99.90;;;;;;5015725;28;20018;-74
2022/09/24 07:41:34;;;;;;;24.92;11.68;;;13.70;99.90;;;;;;5015554;28;20024;-74
2022/09/24 07:44:00;;;;;;;23.17;12.02;;;13.80;99.90;;;;;;5015139;28;20034;-74
2022/09/24 07:46:26;;;;;;;28.67;10.57;;;13.80;99.90;;;;;;5015271;28;20079;-74
2022/09/24 07:48:55;;;;;;;18.88;10.00;;;13.80;99.90;;;;;;5015096;28;20022;-74
2022/09/24 07:51:21;;;;;;;;;;;13.80;99.90;;;;;;5015286;28;20048;-72
2022/09/24 07:53:47;;;;;;;19.70;9.40;;;13.90;99.90;;;;;;5014838;28;19958;-72
2022/09/24 07:56:13;;;;;;;19.52;10.38;;;14.00;99.90;;;;;;5013585;28;20025;-72
2022/09/24 07:58:39;;;;;;;19.00;10.43;;;14.00;99.90;;;;;;5015013;28;20499;-72
2022/09/24 08:01:05;;;;;;;15.20;8.68;;;14.10;99.90;;;;;;5015042;28;20033;-72
2022/09/24 08:03:31;;;;;;;15.27;8.13;;;14.10;99.90;;;;;;5015407;28;20049;-72
2022/09/24 08:05:58;;;;;;;15.13;8.43;;;14.20;99.90;;;;;;5014776;28;20038;-72
2022/09/24 08:08:24;;;;;;;12.85;6.80;;;14.20;99.90;;;;;;5014828;28;20109;-72
2022/09/24 08:10:50;;;;;;;12.98;6.85;;;14.30;99.90;;;;;;5015022;28;20112;-72
2022/09/24 08:13:15;;;;;;;13.20;7.55;;;14.30;99.90;;;;;;5014793;28;20439;-72
2022/09/24 08:15:41;;;;;;;13.45;6.53;;;14.40;99.90;;;;;;5014724;28;20026;-72
2022/09/24 08:18:07;;;;;;;13.10;7.47;;;14.50;99.90;;;;;;5014490;28;20034;-72
2022/09/24 08:20:34;;;;;;;13.32;6.60;;;14.50;99.90;;;;;;5013462;28;20026;-72
2022/09/24 08:23:01;;;;;;;12.90;6.20;;;14.60;99.90;;;;;;5014827;28;20036;-72
2022/09/24 08:25:26;;;;;;;14.15;7.68;;;14.70;99.90;;;;;;5014462;28;20033;-72
2022/09/24 08:27:52;;;;;;;10.90;6.10;;;14.80;99.90;;;;;;5014784;28;20018;-73
2022/09/24 08:30:20;;;;;;;14.32;6.38;;;14.80;99.90;;;;;;5013113;28;20021;-72
2022/09/24 08:32:47;;;;;;;11.38;6.07;;;14.80;99.90;;;;;;5014365;28;20075;-72
2022/09/24 08:35:14;;;;;;;8.20;4.65;;;14.90;99.90;;;;;;5014753;28;20025;-72
2022/09/24 08:37:40;;;;;;;8.45;5.25;;;14.90;99.90;;;;;;5014232;28;20113;-72
2022/09/24 08:40:13;;;;;;;9.10;4.60;;;14.90;99.90;;;;;;5012967;28;20113;-73
2022/09/24 08:42:52;;;;;;;6.63;4.00;;;14.90;99.90;;;;;;5014713;28;20026;-72
2022/09/24 08:48:30;;;;;;;7.90;4.40;;;14.90;99.90;;;;;;5014323;28;20057;-72
2022/09/24 08:51:01;;;;;;;7.72;4.03;;;14.90;99.90;;;;;;5013692;28;20057;-72
2022/09/24 08:53:31;;;;;;;6.82;4.13;;;15.00;99.90;;;;;;5014165;28;20068;-72
2022/09/24 08:56:00;;;;;;;7.13;3.60;;;15.00;99.90;;;;;;5013849;28;20018;-72
2022/09/24 08:58:54;;;;;;;7.72;4.28;;;14.90;99.90;;;;;;5013953;28;20514;-71
2022/09/24 09:01:32;;;;;;;6.07;3.17;;;14.90;99.90;;;;;;5013773;28;20108;-71
2022/09/24 09:04:22;;;;;;;7.65;3.63;;;14.90;99.90;;;;;;5013900;28;20079;-72
2022/09/24 09:06:50;;;;;;;7.45;4.00;;;14.80;99.90;;;;;;5014378;28;20378;-71
2022/09/24 09:09:44;;;;;;;8.73;4.63;;;14.80;99.90;;;;;;5013786;28;20033;-71
2022/09/24 09:12:24;;;;;;;8.23;3.85;;;14.80;99.90;;;;;;5013476;28;20088;-71
2022/09/24 09:15:17;;;;;;;8.43;5.03;;;14.70;99.90;;;;;;5013820;28;20018;-71
2022/09/24 09:17:53;;;;;;;6.95;3.70;;;14.60;99.90;;;;;;5012323;28;20029;-71
2022/09/24 09:20:22;;;;;;;5.45;3.05;;;14.50;99.90;;;;;;5014179;28;20080;-71
2022/09/24 09:22:50;;;;;;;6.00;3.25;;;14.50;99.90;;;;;;5013595;28;20026;-71
2022/09/24 09:25:22;;;;;;;7.88;3.25;;;14.40;99.90;;;;;;5013650;28;20104;-71
2022/09/24 09:28:19;;;;;;;6.20;3.00;;;14.30;99.90;;;;;;5012283;28;20100;-71
2022/09/24 09:31:12;;;;;;;6.60;3.38;;;14.30;99.90;;;;;;5012202;28;20029;-71
2022/09/24 09:34:00;;;;;;;7.38;3.08;;;14.40;99.90;;;;;;5013686;28;20033;-72
2022/09/24 09:36:34;;;;;;;4.53;1.90;;;14.40;99.90;;;;;;5013491;28;20022;-71
2022/09/24 09:39:21;;;;;;;4.28;2.20;;;14.50;99.90;;;;;;5013432;28;20033;-71
2022/09/24 09:41:54;;;;;;;3.80;1.75;;;14.50;99.90;;;;;;5013480;28;20025;-71
2022/09/24 09:44:25;;;;;;;3.88;1.48;;;14.50;99.90;;;;;;5014074;28;20092;-71
2022/09/24 09:46:56;;;;;;;2.97;0.93;;;14.50;99.90;;;;;;5013400;28;20145;-73
2022/09/24 09:49:27;;;;;;;2.72;0.80;;;14.60;99.90;;;;;;5013272;28;20026;-71
2022/09/24 09:51:56;;;;;;;4.13;1.10;;;14.60;99.90;;;;;;5013762;28;20101;-71
2022/09/24 09:54:34;;;;;;;1.70;0.55;;;14.60;99.90;;;;;;5017294;28;20021;-71
2022/09/24 09:57:02;;;;;;;2.28;0.55;;;14.60;99.90;;;;;;5015847;28;20576;-72
2022/09/24 09:59:29;;;;;;;1.47;0.47;;;14.60;99.90;;;;;;5017326;28;20121;-71
2022/09/24 10:01:56;;;;;;;1.23;0.25;;;14.60;99.90;;;;;;5017252;28;20026;-71
2022/09/24 10:04:47;;;;;;;2.40;0.30;;;14.60;99.90;;;;;;5015945;28;20022;-71
2022/09/24 10:07:16;;;;;;;1.83;0.13;;;14.60;99.90;;;;;;5014652;28;20029;-71
2022/09/24 10:09:43;;;;;;;1.58;0.40;;;14.70;99.90;;;;;;5016990;28;20018;-71
2022/09/24 10:12:21;;;;;;;0.80;0.20;;;14.70;99.90;;;;;;5017025;28;20045;-71
2022/09/24 10:15:20;;;;;;;2.92;0.80;;;14.70;99.90;;;;;;5016930;28;20495;-71
2022/09/24 10:17:49;;;;;;;1.85;0.17;;;14.70;99.90;;;;;;5016038;28;20114;-71
2022/09/24 10:20:21;;;;;;;3.17;0.50;;;14.70;99.90;;;;;;5016821;28;20030;-71
2022/09/24 10:22:53;;;;;;;4.03;1.77;;;14.70;99.90;;;;;;5016850;28;20395;-71
2022/09/24 10:25:25;;;;;;;1.60;0.52;;;14.70;99.90;;;;;;5016794;28;20026;-71
2022/09/24 10:27:53;;;;;;;7.95;2.00;;;14.60;99.90;;;;;;5015436;28;20026;-71
2022/09/24 10:30:32;;;;;;;2.58;0.60;;;14.60;99.90;;;;;;5016609;28;20119;-71
2022/09/24 10:33:00;;;;;;;3.08;0.57;;;14.60;99.90;;;;;;5015656;28;20072;-71
2022/09/24 10:35:30;;;;;;;3.50;0.55;;;14.60;99.90;;;;;;5016574;28;20033;-71
2022/09/24 10:37:58;;;;;;;1.50;0.75;;;14.60;99.90;;;;;;5017014;28;20029;-71
2022/09/24 10:40:29;;;;;;;2.47;0.73;;;14.60;99.90;;;;;;5016395;28;20049;-71
2022/09/24 10:43:03;;;;;;;4.65;1.00;;;14.60;99.90;;;;;;5016484;28;20475;-71
2022/09/24 10:45:41;;;;;;;4.43;1.33;;;14.60;99.90;;;;;;5015147;28;20025;-71
2022/09/24 10:48:17;;;;;;;3.38;1.00;;;14.70;99.90;;;;;;5016629;28;20479;-71
2022/09/24 10:50:48;;;;;;;3.53;0.90;;;14.70;99.90;;;;;;5016281;28;20486;-71
2022/09/24 10:53:33;;;;;;;2.85;1.02;;;14.80;99.90;;;;;;5016565;28;20022;-71
2022/09/24 10:56:07;;;;;;;4.57;1.80;;;14.90;99.90;;;;;;5016804;28;20022;-71
2022/09/24 10:58:52;;;;;;;4.53;2.00;;;14.90;99.90;;;;;;5016279;28;20436;-71
2022/09/24 11:01:55;;;;;;;3.63;1.30;;;15.00;99.90;;;;;;5016691;28;20030;-71
2022/09/24 11:04:49;;;;;;;3.55;1.40;;;15.10;99.90;;;;;;5014741;28;20407;-72
2022/09/24 11:07:37;;;;;;;4.70;1.45;;;15.10;99.90;;;;;;5015892;28;20029;-71
2022/09/24 11:10:30;;;;;;;4.23;1.30;;;15.20;99.90;;;;;;5015814;28;20076;-72
2022/09/24 11:13:26;;;;;;;3.45;0.80;;;15.20;99.90;;;;;;5015870;28;20264;-71
2022/09/24 11:16:11;;;;;;;4.32;1.17;;;15.10;99.90;;;;;;5016388;28;20029;-71
2022/09/24 11:18:51;;;;;;;4.20;0.90;;;15.10;99.90;;;;;;5015664;28;20176;-70
2022/09/24 11:21:43;;;;;;;5.50;1.42;;;15.00;99.90;;;;;;5015728;28;20022;-71
2022/09/24 11:24:37;;;;;;;5.75;0.60;;;15.00;99.90;;;;;;5015711;28;20030;-72
2022/09/24 11:27:06;;;;;;;2.45;0.63;;;15.00;99.90;;;;;;5012228;28;20036;-71
2022/09/24 11:29:50;;;;;;;1.90;1.23;;;15.00;99.90;;;;;;5004808;28;20145;-71
2022/09/24 11:32:38;;;;;;;4.32;0.57;;;14.90;99.90;;;;;;4996286;28;20026;-71
2022/09/24 11:35:28;;;;;;;3.60;0.40;;;14.90;99.90;;;;;;4995991;28;20455;-71
2022/09/24 11:37:59;;;;;;;5.43;0.63;;;14.90;99.90;;;;;;4995809;28;20392;-73
2022/09/24 11:40:36;;;;;;;4.95;0.50;;;14.90;99.90;;;;;;4995736;28;20022;-75
2022/09/24 11:43:44;;;;;;;2.85;0.30;;;15.00;99.90;;;;;;4994531;28;20395;-75
2022/09/24 11:46:35;;;;;;;3.47;0.32;;;15.00;99.90;;;;;;4972957;28;20042;-74
2022/09/24 11:49:06;;;;;;;3.03;0.80;;;14.90;99.90;;;;;;4995691;28;20022;-73
2022/09/24 11:51:44;;;;;;;3.70;0.85;;;15.00;99.90;;;;;;4995494;28;20062;-74
2022/09/24 11:54:50;;;;;;;6.25;0.60;;;14.90;99.90;;;;;;4993637;28;20025;-74
2022/09/24 11:57:31;;;;;;;2.90;0.30;;;15.00;99.90;;;;;;4992023;28;20069;-73
2022/09/24 12:00:18;;;;;;;4.43;0.52;;;15.00;99.90;;;;;;4995672;28;20022;-73
2022/09/24 12:02:48;;;;;;;3.22;0.30;;;15.00;99.90;;;;;;4994289;28;20037;-73
2022/09/24 12:05:32;;;;;;;5.50;0.50;;;15.00;99.90;;;;;;4994112;28;20034;-71
2022/09/24 12:08:14;;;;;;;5.85;0.65;;;15.00;99.90;;;;;;4995174;28;20530;-72
2022/09/24 12:11:01;;;;;;;7.43;0.55;;;15.00;99.90;;;;;;4995459;28;20026;-74
2022/09/24 12:13:38;;;;;;;3.67;0.25;;;15.10;99.90;;;;;;4995474;28;20089;-73
2022/09/24 12:16:15;;;;;;;3.60;0.22;;;15.10;99.90;;;;;;4993066;28;20023;-73
2022/09/24 12:18:55;;;;;;;3.25;0.30;;;15.10;99.90;;;;;;4994801;28;20092;-73
2022/09/24 12:21:26;;;;;;;4.90;0.10;;;15.20;99.90;;;;;;4993781;28;20094;-75
2022/09/24 12:23:56;;;;;;;3.67;0.43;;;15.20;99.90;;;;;;4995088;28;20028;-73
2022/09/24 12:26:24;;;;;;;3.25;0.50;;;15.20;99.90;;;;;;4993471;28;20359;-74
2022/09/24 12:35:13;;;;;;;7.07;0.35;;;15.20;99.90;;;;;;4994989;28;20046;-73
2022/09/24 12:37:43;;;;;;;3.47;0.00;;;15.30;99.90;;;;;;4994748;28;20031;-72
2022/09/24 12:40:37;;;;;;;4.50;0.20;;;15.30;99.90;;;;;;4995050;28;20479;-72
2022/09/24 12:43:17;;;;;;;6.85;0.30;;;15.40;99.90;;;;;;4994613;28;20089;-72
2022/09/24 12:45:44;;;;;;;3.60;0.00;;;15.50;99.90;;;;;;4994920;28;20041;-72
2022/09/24 12:48:18;;;;;;;3.40;0.73;;;15.50;99.90;;;;;;4993103;28;20031;-73
2022/09/24 12:50:58;;;;;;;4.55;0.40;;;15.60;99.90;;;;;;4993231;28;20030;-72
2022/09/24 12:53:26;;;;;;;4.78;0.52;;;15.60;99.90;;;;;;4994800;28;20014;-72
2022/09/24 12:55:58;;;;;;;5.13;0.25;;;15.60;99.90;;;;;;4994410;28;20447;-73
2022/09/24 12:58:40;;;;;;;3.08;0.20;;;15.60;99.90;;;;;;4994526;28;20062;-72
2022/09/24 13:01:23;;;;;;;2.83;0.00;;;15.50;99.90;;;;;;4994664;28;20030;-72
2022/09/24 13:04:13;;;;;;;6.57;0.52;;;15.50;99.90;;;;;;4994621;28;20030;-72
2022/09/24 13:06:39;;;;;;;2.78;0.22;;;15.50;99.90;;;;;;4994254;28;20030;-72
2022/09/24 13:09:43;;;;;;;5.97;0.63;;;15.40;99.90;;;;;;4993004;28;20117;-72
2022/09/24 13:12:21;;;;;;;6.63;0.55;;;15.70;99.90;;;;;;4992782;28;20034;-72
2022/09/24 13:15:01;;;;;;;11.90;0.47;;;15.60;99.90;;;;;;4992984;28;20098;-71
2022/09/24 13:17:29;;;;;;;5.43;0.15;;;15.60;99.90;;;;;;4993059;28;20034;-71